createdAt,value
2023-03-12T00:00:13.264Z,92.32
2023-03-12T00:01:13.240Z,92.21
2023-03-12T00:02:13.235Z,91.89
2023-03-12T00:03:13.202Z,91.89
2023-03-12T00:04:13.189Z,91.79
2023-03-12T00:05:13.180Z,91.58
2023-03-12T00:06:13.165Z,91.37
2023-03-12T00:07:13.152Z,91.16
2023-03-12T00:08:13.165Z,91.16
2023-03-12T00:09:13.123Z,91.58
2023-03-12T00:10:13.107Z,92.10
2023-03-12T00:11:13.299Z,92.42
2023-03-12T00:12:13.089Z,92.52
2023-03-12T00:13:13.064Z,92.32
2023-03-12T00:14:13.099Z,92.04
2023-03-12T00:15:13.040Z,91.89
2023-03-12T00:16:13.138Z,91.68
2023-03-12T00:17:13.020Z,91.83
2023-03-12T00:18:13.005Z,91.94
2023-03-12T00:19:12.989Z,92.21
2023-03-12T00:20:12.976Z,92.35
2023-03-12T00:21:12.966Z,92.35
2023-03-12T00:22:12.948Z,92.46
2023-03-12T00:23:12.939Z,92.57
2023-03-12T00:24:12.953Z,92.99
2023-03-12T00:25:12.930Z,93.09
2023-03-12T00:26:12.900Z,92.83
2023-03-12T00:27:12.883Z,92.88
2023-03-12T00:28:12.871Z,92.99
2023-03-12T00:29:12.872Z,93.30
2023-03-12T00:30:12.839Z,93.19
2023-03-12T00:31:12.938Z,92.77
2023-03-12T00:32:12.817Z,92.77
2023-03-12T00:33:12.800Z,92.77
2023-03-12T00:34:12.787Z,92.99
2023-03-12T00:35:12.771Z,92.99
2023-03-12T00:36:12.757Z,92.92
2023-03-12T00:37:12.746Z,93.24
2023-03-12T00:38:12.731Z,93.13
2023-03-12T00:39:12.720Z,93.30
2023-03-12T00:40:12.736Z,93.34
2023-03-12T00:41:12.700Z,93.34
2023-03-12T00:42:12.681Z,93.44
2023-03-12T00:43:12.669Z,93.55
2023-03-12T00:44:12.654Z,93.87
2023-03-12T00:45:12.645Z,93.87
2023-03-12T00:46:12.697Z,94.29
2023-03-12T00:47:12.626Z,94.29
2023-03-12T00:48:12.651Z,93.97
2023-03-12T00:49:12.591Z,93.70
2023-03-12T00:50:12.568Z,93.70
2023-03-12T00:51:12.567Z,93.91
2023-03-12T00:52:12.552Z,94.23
2023-03-12T00:53:12.530Z,94.43
2023-03-12T00:54:12.516Z,94.33
2023-03-12T00:55:12.503Z,94.43
2023-03-12T00:56:12.527Z,94.33
2023-03-12T00:57:12.494Z,94.33
2023-03-12T00:58:12.466Z,94.33
2023-03-12T00:59:12.452Z,94.60
2023-03-12T01:00:12.437Z,95.06
2023-03-12T01:01:12.548Z,95.23
2023-03-12T01:02:12.407Z,95.28
2023-03-12T01:03:12.428Z,95.13
2023-03-12T01:04:12.457Z,94.96
2023-03-12T01:05:12.376Z,95.06
2023-03-12T01:06:12.357Z,95.13
2023-03-12T01:07:12.352Z,95.34
2023-03-12T01:08:12.335Z,95.34
2023-03-12T01:09:12.335Z,95.23
2023-03-12T01:10:12.308Z,95.34
2023-03-12T01:11:12.296Z,95.44
2023-03-12T01:12:12.303Z,95.44
2023-03-12T01:13:12.267Z,95.13
2023-03-12T01:14:12.252Z,94.81
2023-03-12T01:15:12.251Z,94.56
2023-03-12T01:16:12.332Z,94.35
2023-03-12T01:17:12.225Z,94.35
2023-03-12T01:18:12.200Z,94.35
2023-03-12T01:19:12.199Z,94.35
2023-03-12T01:20:12.174Z,94.45
2023-03-12T01:21:12.169Z,94.45
2023-03-12T01:22:12.149Z,94.35
2023-03-12T01:23:12.145Z,94.24
2023-03-12T01:24:12.120Z,94.14
2023-03-12T01:25:12.122Z,94.04
2023-03-12T01:26:12.104Z,93.78
2023-03-12T01:27:12.078Z,93.72
2023-03-12T01:28:12.093Z,93.47
2023-03-12T01:29:12.063Z,93.36
2023-03-12T01:30:12.043Z,93.36
2023-03-12T01:31:12.093Z,93.05
2023-03-12T01:32:12.021Z,92.63
2023-03-12T01:33:12.006Z,92.52
2023-03-12T01:34:11.989Z,92.52
2023-03-12T01:35:12.006Z,92.52
2023-03-12T01:36:11.984Z,92.32
2023-03-12T01:37:11.951Z,92.27
2023-03-12T01:38:11.943Z,92.21
2023-03-12T01:39:11.921Z,92.21
2023-03-12T01:40:11.916Z,91.96
2023-03-12T01:41:11.900Z,91.85
2023-03-12T01:42:11.881Z,91.96
2023-03-12T01:43:11.862Z,92.06
2023-03-12T01:44:11.879Z,91.96
2023-03-12T01:45:11.836Z,91.85
2023-03-12T01:46:11.946Z,91.85
2023-03-12T01:47:11.810Z,91.68
2023-03-12T01:48:11.792Z,91.64
2023-03-12T01:49:11.782Z,91.85
2023-03-12T01:50:11.770Z,91.64
2023-03-12T01:51:11.755Z,91.43
2023-03-12T01:52:11.750Z,91.43
2023-03-12T01:53:11.734Z,91.60
2023-03-12T01:54:11.722Z,91.85
2023-03-12T01:55:11.704Z,91.85
2023-03-12T01:56:11.702Z,91.53
2023-03-12T01:57:11.681Z,91.28
2023-03-12T01:58:11.668Z,91.01
2023-03-12T01:59:11.682Z,91.12
2023-03-12T02:00:11.663Z,91.43
2023-03-12T02:01:11.644Z,91.28
2023-03-12T02:02:11.612Z,91.39
2023-03-12T02:03:11.601Z,91.53
2023-03-12T02:04:11.714Z,91.39
2023-03-12T02:05:11.577Z,91.18
2023-03-12T02:06:11.561Z,90.97
2023-03-12T02:07:11.606Z,91.01
2023-03-12T02:08:11.534Z,90.87
2023-03-12T02:09:11.523Z,90.97
2023-03-12T02:10:11.524Z,90.97
2023-03-12T02:11:11.502Z,90.87
2023-03-12T02:12:11.686Z,90.76
2023-03-12T02:13:11.468Z,90.97
2023-03-12T02:14:11.457Z,91.18
2023-03-12T02:15:11.439Z,91.14
2023-03-12T02:16:11.764Z,91.18
2023-03-12T02:17:11.622Z,91.50
2023-03-12T02:18:11.406Z,91.46
2023-03-12T02:19:11.387Z,91.50
2023-03-12T02:20:11.376Z,91.03
2023-03-12T02:21:11.608Z,90.87
2023-03-12T02:22:11.798Z,90.76
2023-03-12T02:23:11.339Z,90.97
2023-03-12T02:24:11.324Z,91.18
2023-03-12T02:25:11.315Z,91.18
2023-03-12T02:26:11.298Z,91.24
2023-03-12T02:27:11.292Z,91.14
2023-03-12T02:28:11.280Z,90.97
2023-03-12T02:29:11.270Z,90.76
2023-03-12T02:30:11.246Z,90.66
2023-03-12T02:31:11.234Z,90.61
2023-03-12T02:32:11.247Z,90.61
2023-03-12T02:33:11.211Z,90.66
2023-03-12T02:34:11.196Z,90.66
2023-03-12T02:35:11.214Z,90.51
2023-03-12T02:36:11.243Z,90.51
2023-03-12T02:37:11.158Z,90.55
2023-03-12T02:38:11.137Z,90.66
2023-03-12T02:39:11.140Z,90.66
2023-03-12T02:40:11.115Z,90.76
2023-03-12T02:41:11.100Z,90.72
2023-03-12T02:42:11.086Z,90.51
2023-03-12T02:43:11.077Z,90.66
2023-03-12T02:44:11.059Z,90.83
2023-03-12T02:45:11.047Z,90.72
2023-03-12T02:46:11.070Z,90.76
2023-03-12T02:47:11.026Z,90.72
2023-03-12T02:48:11.032Z,90.72
2023-03-12T02:49:11.143Z,90.72
2023-03-12T02:50:10.995Z,90.72
2023-03-12T02:51:10.973Z,90.61
2023-03-12T02:52:10.963Z,90.72
2023-03-12T02:53:10.944Z,90.87
2023-03-12T02:54:10.937Z,90.83
2023-03-12T02:55:10.933Z,90.83
2023-03-12T02:56:10.913Z,90.72
2023-03-12T02:57:10.897Z,90.51
2023-03-12T02:58:10.882Z,90.41
2023-03-12T02:59:10.861Z,90.51
2023-03-12T03:00:10.850Z,90.30
2023-03-12T03:01:10.871Z,89.95
2023-03-12T03:02:10.826Z,89.95
2023-03-12T03:03:10.815Z,89.84
2023-03-12T03:04:11.032Z,89.78
2023-03-12T03:05:10.792Z,89.73
2023-03-12T03:06:10.775Z,89.73
2023-03-12T03:07:10.766Z,89.95
2023-03-12T03:08:10.746Z,90.26
2023-03-12T03:09:10.734Z,90.47
2023-03-12T03:10:10.738Z,90.47
2023-03-12T03:11:10.710Z,90.26
2023-03-12T03:12:10.706Z,89.95
2023-03-12T03:13:10.688Z,89.95
2023-03-12T03:14:10.683Z,90.09
2023-03-12T03:15:10.661Z,89.84
2023-03-12T03:16:10.753Z,89.95
2023-03-12T03:17:10.651Z,90.16
2023-03-12T03:18:10.624Z,90.05
2023-03-12T03:19:10.625Z,89.95
2023-03-12T03:20:10.624Z,89.73
2023-03-12T03:21:10.574Z,89.73
2023-03-12T03:22:10.577Z,89.73
2023-03-12T03:23:10.554Z,89.73
2023-03-12T03:24:10.536Z,89.84
2023-03-12T03:25:10.538Z,89.73
2023-03-12T03:26:10.512Z,89.63
2023-03-12T03:27:10.505Z,89.63
2023-03-12T03:28:10.489Z,89.53
2023-03-12T03:29:10.487Z,89.42
2023-03-12T03:30:10.464Z,89.63
2023-03-12T03:31:10.547Z,89.84
2023-03-12T03:32:10.441Z,89.95
2023-03-12T03:33:10.429Z,90.05
2023-03-12T03:34:10.415Z,90.05
2023-03-12T03:35:10.401Z,90.05
2023-03-12T03:36:10.403Z,89.95
2023-03-12T03:37:10.374Z,90.05
2023-03-12T03:38:10.350Z,90.26
2023-03-12T03:39:10.344Z,90.36
2023-03-12T03:40:10.329Z,90.26
2023-03-12T03:41:10.318Z,90.36
2023-03-12T03:42:10.305Z,90.26
2023-03-12T03:43:10.289Z,90.36
2023-03-12T03:44:10.276Z,90.47
2023-03-12T03:45:10.275Z,90.47
2023-03-12T03:46:10.285Z,90.53
2023-03-12T03:47:10.236Z,90.68
2023-03-12T03:48:10.370Z,90.78
2023-03-12T03:49:10.219Z,90.89
2023-03-12T03:50:10.201Z,90.95
2023-03-12T03:51:10.183Z,90.89
2023-03-12T03:52:10.195Z,90.78
2023-03-12T03:53:10.161Z,90.89
2023-03-12T03:54:10.302Z,90.78
2023-03-12T03:55:10.136Z,90.89
2023-03-12T03:56:10.112Z,90.84
2023-03-12T03:57:10.400Z,90.95
2023-03-12T03:58:10.088Z,90.95
2023-03-12T03:59:10.335Z,90.95
2023-03-12T04:00:10.097Z,90.84
2023-03-12T04:01:10.064Z,90.53
2023-03-12T04:02:10.290Z,90.53
2023-03-12T04:03:10.104Z,90.53
2023-03-12T04:04:10.011Z,90.43
2023-03-12T04:05:10.001Z,89.90
2023-03-12T04:06:09.982Z,89.80
2023-03-12T04:07:09.970Z,90.11
2023-03-12T04:08:09.993Z,90.43
2023-03-12T04:09:09.950Z,90.22
2023-03-12T04:10:09.931Z,90.01
2023-03-12T04:11:09.952Z,90.11
2023-03-12T04:12:09.904Z,90.08
2023-03-12T04:13:09.890Z,89.97
2023-03-12T04:14:09.880Z,90.18
2023-03-12T04:15:09.862Z,90.43
2023-03-12T04:16:09.961Z,89.97
2023-03-12T04:17:09.845Z,89.76
2023-03-12T04:18:09.877Z,90.01
2023-03-12T04:19:09.827Z,89.97
2023-03-12T04:20:09.806Z,89.86
2023-03-12T04:21:09.794Z,89.86
2023-03-12T04:22:09.776Z,89.55
2023-03-12T04:23:09.777Z,89.65
2023-03-12T04:24:09.769Z,89.76
2023-03-12T04:25:09.745Z,89.76
2023-03-12T04:26:09.720Z,89.65
2023-03-12T04:27:09.737Z,89.76
2023-03-12T04:28:09.697Z,90.08
2023-03-12T04:29:09.685Z,89.86
2023-03-12T04:30:09.666Z,89.97
2023-03-12T04:31:09.678Z,89.97
2023-03-12T04:32:09.646Z,89.93
2023-03-12T04:33:09.634Z,89.97
2023-03-12T04:34:09.617Z,89.61
2023-03-12T04:35:09.610Z,89.51
2023-03-12T04:36:09.700Z,89.51
2023-03-12T04:37:09.579Z,89.61
2023-03-12T04:38:09.563Z,89.61
2023-03-12T04:39:09.551Z,89.93
2023-03-12T04:40:09.558Z,90.03
2023-03-12T04:41:09.523Z,89.93
2023-03-12T04:42:09.520Z,89.68
2023-03-12T04:43:09.504Z,89.78
2023-03-12T04:44:12.561Z,89.40
2023-03-12T04:45:09.475Z,89.20
2023-03-12T04:46:09.545Z,89.20
2023-03-12T04:47:09.447Z,89.40
2023-03-12T04:48:09.435Z,89.58
2023-03-12T04:49:09.455Z,89.72
2023-03-12T04:50:09.409Z,89.68
2023-03-12T04:51:09.398Z,89.40
2023-03-12T04:52:09.381Z,89.26
2023-03-12T04:53:09.416Z,89.36
2023-03-12T04:54:09.356Z,89.26
2023-03-12T04:55:09.342Z,89.15
2023-03-12T04:56:09.367Z,89.05
2023-03-12T04:57:09.322Z,89.40
2023-03-12T04:58:09.306Z,89.58
2023-03-12T04:59:09.496Z,89.47
2023-03-12T05:00:09.273Z,89.47
2023-03-12T05:01:09.269Z,89.58
2023-03-12T05:02:09.251Z,89.26
2023-03-12T05:03:09.354Z,89.26
2023-03-12T05:04:09.294Z,88.95
2023-03-12T05:05:09.215Z,89.05
2023-03-12T05:06:09.203Z,89.26
2023-03-12T05:07:09.203Z,89.47
2023-03-12T05:08:09.180Z,89.36
2023-03-12T05:09:09.158Z,89.26
2023-03-12T05:10:09.145Z,89.36
2023-03-12T05:11:09.134Z,89.58
2023-03-12T05:12:09.152Z,89.43
2023-03-12T05:13:09.110Z,89.26
2023-03-12T05:14:09.101Z,88.84
2023-03-12T05:15:09.093Z,88.32
2023-03-12T05:16:09.142Z,88.42
2023-03-12T05:17:09.057Z,88.53
2023-03-12T05:18:09.036Z,88.59
2023-03-12T05:19:09.029Z,88.84
2023-03-12T05:20:09.020Z,89.05
2023-03-12T05:21:09.005Z,89.22
2023-03-12T05:22:08.990Z,89.36
2023-03-12T05:23:08.978Z,89.47
2023-03-12T05:24:08.972Z,89.47
2023-03-12T05:25:08.952Z,89.36
2023-03-12T05:26:08.935Z,89.47
2023-03-12T05:27:08.918Z,89.47
2023-03-12T05:28:08.944Z,89.32
2023-03-12T05:29:08.915Z,89.15
2023-03-12T05:30:08.887Z,88.84
2023-03-12T05:31:08.966Z,88.74
2023-03-12T05:32:08.860Z,88.70
2023-03-12T05:33:08.846Z,89.15
2023-03-12T05:34:08.830Z,88.64
2023-03-12T05:35:08.830Z,88.53
2023-03-12T05:36:08.891Z,89.36
2023-03-12T05:37:08.784Z,90.06
2023-03-12T05:38:08.777Z,90.20
2023-03-12T05:39:08.785Z,90.52
2023-03-12T05:40:08.746Z,91.14
2023-03-12T05:41:08.739Z,91.52
2023-03-12T05:42:08.742Z,92.04
2023-03-12T05:43:08.727Z,92.56
2023-03-12T05:44:08.728Z,92.77
2023-03-12T05:45:08.682Z,92.88
2023-03-12T05:46:08.693Z,92.98
2023-03-12T05:47:08.652Z,92.46
2023-03-12T05:48:08.648Z,92.08
2023-03-12T05:49:08.636Z,92.40
2023-03-12T05:50:08.615Z,92.56
2023-03-12T05:51:08.605Z,92.83
2023-03-12T05:52:08.589Z,92.83
2023-03-12T05:53:08.577Z,92.52
2023-03-12T05:54:08.557Z,92.66
2023-03-12T05:55:08.549Z,93.19
2023-03-12T05:56:08.536Z,93.46
2023-03-12T05:57:08.524Z,93.61
2023-03-12T05:58:08.507Z,93.35
2023-03-12T05:59:08.493Z,93.25
2023-03-12T06:00:08.523Z,93.40
2023-03-12T06:01:08.462Z,93.57
2023-03-12T06:02:08.500Z,93.46
2023-03-12T06:03:08.545Z,93.15
2023-03-12T06:04:08.434Z,92.88
2023-03-12T06:05:08.412Z,93.40
2023-03-12T06:06:08.445Z,93.04
2023-03-12T06:07:08.446Z,92.73
2023-03-12T06:08:08.482Z,92.83
2023-03-12T06:09:08.519Z,92.83
2023-03-12T06:10:08.359Z,92.63
2023-03-12T06:11:08.337Z,92.52
2023-03-12T06:12:08.435Z,92.10
2023-03-12T06:13:08.502Z,92.31
2023-03-12T06:14:08.497Z,92.83
2023-03-12T06:15:08.332Z,92.94
2023-03-12T06:16:08.544Z,92.73
2023-03-12T06:17:08.246Z,92.52
2023-03-12T06:18:08.229Z,92.41
2023-03-12T06:19:08.226Z,92.52
2023-03-12T06:20:08.244Z,92.90
2023-03-12T06:21:08.198Z,92.94
2023-03-12T06:22:08.182Z,93.15
2023-03-12T06:23:08.170Z,93.84
2023-03-12T06:24:08.153Z,94.04
2023-03-12T06:25:08.138Z,93.98
2023-03-12T06:26:08.127Z,93.63
2023-03-12T06:27:08.120Z,93.73
2023-03-12T06:28:08.109Z,93.73
2023-03-12T06:29:08.095Z,94.15
2023-03-12T06:30:08.081Z,94.57
2023-03-12T06:31:08.145Z,94.78
2023-03-12T06:32:08.070Z,95.09
2023-03-12T06:33:08.037Z,95.40
2023-03-12T06:34:08.021Z,95.72
2023-03-12T06:35:08.009Z,96.23
2023-03-12T06:36:08.000Z,96.76
2023-03-12T06:37:07.984Z,97.59
2023-03-12T06:38:07.970Z,98.07
2023-03-12T06:39:07.970Z,98.32
2023-03-12T06:40:07.946Z,98.74
2023-03-12T06:41:07.950Z,99.05
2023-03-12T06:42:07.936Z,99.68
2023-03-12T06:43:07.905Z,99.99
2023-03-12T06:44:07.897Z,99.99
2023-03-12T06:45:07.882Z,99.99
2023-03-12T06:46:08.003Z,99.99
2023-03-12T06:47:07.861Z,99.99
2023-03-12T06:48:07.866Z,99.99
2023-03-12T06:49:07.839Z,99.99
2023-03-12T06:50:07.835Z,99.99
2023-03-12T06:51:07.808Z,99.99
2023-03-12T06:52:07.803Z,99.99
2023-03-12T06:53:07.772Z,99.99
2023-03-12T06:54:07.761Z,99.99
2023-03-12T06:55:07.747Z,99.99
2023-03-12T06:56:07.753Z,99.99
2023-03-12T06:57:07.726Z,99.99
2023-03-12T06:58:07.714Z,99.99
2023-03-12T06:59:07.699Z,99.99
2023-03-12T07:00:07.688Z,99.99
2023-03-12T07:01:07.699Z,99.99
2023-03-12T07:02:07.978Z,99.99
2023-03-12T07:03:07.653Z,99.99
2023-03-12T07:04:07.660Z,99.99
2023-03-12T07:05:07.766Z,99.99
2023-03-12T07:06:07.607Z,99.99
2023-03-12T07:07:07.596Z,99.99
2023-03-12T07:08:07.583Z,99.99
2023-03-12T07:09:07.576Z,99.99
2023-03-12T07:10:07.557Z,99.99
2023-03-12T07:11:07.544Z,99.99
2023-03-12T07:12:07.536Z,99.99
2023-03-12T07:13:07.525Z,99.99
2023-03-12T07:14:07.509Z,99.99
2023-03-12T07:15:07.496Z,99.99
2023-03-12T07:16:07.564Z,99.99
2023-03-12T07:17:07.471Z,99.99
2023-03-12T07:18:07.460Z,99.99
2023-03-12T07:19:07.447Z,99.99
2023-03-12T07:20:07.457Z,99.99
2023-03-12T07:21:07.417Z,99.99
2023-03-12T07:22:07.406Z,99.99
2023-03-12T07:23:07.395Z,99.99
2023-03-12T07:24:07.380Z,99.99
2023-03-12T07:25:07.371Z,99.99
2023-03-12T07:26:07.375Z,99.99
2023-03-12T07:27:07.345Z,99.99
2023-03-12T07:28:07.341Z,99.99
2023-03-12T07:29:07.311Z,99.99
2023-03-12T07:30:07.307Z,99.99
2023-03-12T07:31:07.410Z,99.99
2023-03-12T07:32:07.280Z,99.99
2023-03-12T07:33:07.404Z,99.99
2023-03-12T07:34:07.388Z,99.99
2023-03-12T07:35:07.260Z,99.99
2023-03-12T07:36:07.431Z,99.99
2023-03-12T07:37:07.215Z,99.99
2023-03-12T07:38:07.246Z,99.99
2023-03-12T07:39:07.189Z,99.99
2023-03-12T07:40:07.249Z,99.99
2023-03-12T07:41:07.243Z,99.99
2023-03-12T07:42:07.197Z,99.99
2023-03-12T07:43:07.127Z,99.99
2023-03-12T07:44:07.189Z,99.99
2023-03-12T07:45:07.158Z,99.99
2023-03-12T07:46:07.085Z,99.99
2023-03-12T07:47:22.721Z,99.99
2023-03-12T07:48:08.243Z,99.99
2023-03-12T07:49:07.043Z,99.99
2023-03-12T07:50:07.108Z,99.99
2023-03-12T07:51:07.069Z,99.99
2023-03-12T07:52:07.087Z,99.99
2023-03-12T07:53:06.996Z,99.99
2023-03-12T07:54:06.990Z,99.99
2023-03-12T07:55:07.205Z,96.41
2023-03-12T07:56:07.345Z,94.90
2023-03-12T07:57:07.109Z,95.73
2023-03-12T07:58:07.035Z,96.62
2023-03-12T07:59:07.126Z,96.52
2023-03-12T08:00:06.943Z,95.86
2023-03-12T08:01:06.979Z,96.06
2023-03-12T08:02:06.979Z,97.00
2023-03-12T08:03:07.011Z,95.34
2023-03-12T08:04:07.029Z,92.68
2023-03-12T08:05:06.968Z,90.70
2023-03-12T08:06:06.882Z,91.64
2023-03-12T08:07:09.162Z,93.30
2023-03-12T08:08:06.811Z,93.68
2023-03-12T08:09:06.777Z,94.51
2023-03-12T08:10:06.850Z,94.20
2023-03-12T08:11:06.752Z,93.93
2023-03-12T08:12:06.786Z,93.37
2023-03-12T08:13:06.853Z,94.30
2023-03-12T08:14:06.823Z,94.20
2023-03-12T08:15:06.702Z,93.57
2023-03-12T08:16:09.338Z,92.32
2023-03-12T08:17:06.672Z,93.01
2023-03-12T08:18:06.657Z,93.84
2023-03-12T08:19:06.643Z,93.63
2023-03-12T08:20:06.632Z,92.24
2023-03-12T08:21:06.624Z,90.52
2023-03-12T08:22:06.621Z,89.79
2023-03-12T08:23:06.592Z,91.86
2023-03-12T08:24:06.603Z,92.14
2023-03-12T08:25:06.568Z,90.37
2023-03-12T08:26:06.546Z,91.06
2023-03-12T08:27:06.535Z,90.33
2023-03-12T08:28:06.524Z,89.04
2023-03-12T08:29:06.507Z,87.38
2023-03-12T08:30:06.633Z,88.73
2023-03-12T08:31:06.488Z,89.98
2023-03-12T08:32:06.541Z,89.56
2023-03-12T08:33:06.577Z,89.67
2023-03-12T08:34:06.441Z,89.25
2023-03-12T08:35:06.431Z,86.66
2023-03-12T08:36:06.476Z,87.45
2023-03-12T08:37:06.402Z,87.49
2023-03-12T08:38:06.390Z,89.11
2023-03-12T08:39:06.381Z,88.96
2023-03-12T08:40:06.389Z,88.90
2023-03-12T08:41:06.350Z,91.45
2023-03-12T08:42:06.342Z,92.13
2023-03-12T08:43:06.329Z,89.65
2023-03-12T08:44:06.314Z,89.89
2023-03-12T08:45:06.297Z,87.41
2023-03-12T08:46:06.346Z,86.07
2023-03-12T08:47:06.276Z,88.13
2023-03-12T08:48:06.258Z,90.83
2023-03-12T08:49:06.245Z,91.82
2023-03-12T08:50:06.234Z,91.20
2023-03-12T08:51:06.220Z,86.13
2023-03-12T08:52:06.353Z,87.99
2023-03-12T08:53:06.189Z,89.29
2023-03-12T08:54:06.184Z,89.50
2023-03-12T08:55:06.186Z,88.36
2023-03-12T08:56:06.178Z,87.85
2023-03-12T08:57:06.145Z,87.33
2023-03-12T08:58:06.127Z,86.36
2023-03-12T08:59:06.516Z,85.02
2023-03-12T09:00:06.094Z,86.46
2023-03-12T09:01:06.088Z,86.46
2023-03-12T09:02:06.086Z,85.76
2023-03-12T09:03:06.091Z,86.34
2023-03-12T09:04:06.127Z,85.58
2023-03-12T09:05:06.040Z,86.05
2023-03-12T09:06:06.041Z,84.09
2023-03-12T09:07:06.002Z,81.72
2023-03-12T09:08:05.991Z,83.78
2023-03-12T09:09:05.994Z,84.61
2023-03-12T09:10:05.968Z,84.30
2023-03-12T09:11:05.949Z,86.16
2023-03-12T09:12:05.976Z,85.64
2023-03-12T09:13:05.929Z,83.58
2023-03-12T09:15:05.916Z,86.16
2023-03-12T09:16:05.886Z,85.23
2023-03-12T09:17:05.879Z,84.99
2023-03-12T09:18:05.865Z,82.71
2023-03-12T09:19:05.861Z,85.81
2023-03-12T09:20:05.849Z,85.30
2023-03-12T09:21:05.819Z,82.37
2023-03-12T09:22:05.807Z,84.59
2023-03-12T09:23:07.720Z,83.26
2023-03-12T09:24:05.788Z,83.15
2023-03-12T09:25:05.760Z,83.73
2023-03-12T09:26:05.765Z,85.01
2023-03-12T09:27:05.750Z,84.19
2023-03-12T09:28:06.103Z,84.91
2023-03-12T09:29:05.706Z,83.67
2023-03-12T09:30:05.696Z,81.34
2023-03-12T09:31:05.756Z,86.15
2023-03-12T09:32:06.061Z,86.45
2023-03-12T09:33:05.650Z,86.15
2023-03-12T09:34:05.640Z,84.80
2023-03-12T09:35:05.634Z,84.49
2023-03-12T09:36:05.726Z,83.84
2023-03-12T09:37:05.600Z,84.35
2023-03-12T09:38:05.591Z,83.70
2023-03-12T09:39:05.593Z,85.51
2023-03-12T09:40:05.559Z,83.37
2023-03-12T09:41:05.554Z,81.04
2023-03-12T09:42:05.528Z,78.33
2023-03-12T09:43:05.519Z,81.48
2023-03-12T09:44:05.528Z,78.87
2023-03-12T09:45:05.494Z,78.49
2023-03-12T09:46:05.519Z,79.41
2023-03-12T09:47:05.469Z,79.89
2023-03-12T09:48:05.464Z,81.94
2023-03-12T09:49:05.449Z,78.86
2023-03-12T09:50:05.435Z,77.60
2023-03-12T09:51:05.412Z,77.50
2023-03-12T09:52:05.396Z,76.43
2023-03-12T09:53:05.386Z,76.37
2023-03-12T09:54:05.376Z,78.01
2023-03-12T09:55:05.372Z,76.75
2023-03-12T09:56:05.347Z,76.71
2023-03-12T09:57:05.332Z,80.74
2023-03-12T09:58:05.329Z,78.45
2023-03-12T09:59:05.306Z,76.23
2023-03-12T10:00:05.322Z,78.63
2023-03-12T10:01:05.276Z,79.17
2023-03-12T10:02:05.269Z,79.04
2023-03-12T10:03:05.309Z,79.90
2023-03-12T10:04:05.247Z,81.64
2023-03-12T10:05:05.294Z,84.10
2023-03-12T10:06:05.256Z,83.04
2023-03-12T10:07:05.206Z,83.20
2023-03-12T10:08:22.860Z,82.08
2023-03-12T10:09:06.201Z,77.77
2023-03-12T10:10:05.156Z,80.51
2023-03-12T10:11:05.146Z,82.50
2023-03-12T10:12:05.170Z,83.50
2023-03-12T10:13:05.118Z,85.52
2023-03-12T10:14:05.111Z,86.75
2023-03-12T10:15:05.100Z,86.03
2023-03-12T10:16:05.184Z,86.44
2023-03-12T10:17:05.064Z,87.12
2023-03-12T10:18:05.226Z,87.28
2023-03-12T10:19:05.099Z,87.08
2023-03-12T10:20:05.032Z,85.13
2023-03-12T10:21:05.024Z,84.82
2023-03-12T10:22:05.002Z,83.07
2023-03-12T10:23:04.986Z,83.07
2023-03-12T10:24:04.970Z,83.53
2023-03-12T10:25:04.974Z,85.54
2023-03-12T10:26:04.947Z,86.57
2023-03-12T10:27:04.935Z,84.06
2023-03-12T10:28:04.920Z,84.61
2023-03-12T10:29:04.909Z,85.39
2023-03-12T10:30:04.897Z,84.27
2023-03-12T10:31:05.037Z,83.86
2023-03-12T10:32:04.901Z,85.64
2023-03-12T10:33:04.846Z,84.78
2023-03-12T10:34:04.845Z,85.19
2023-03-12T10:35:04.819Z,85.60
2023-03-12T10:36:04.899Z,87.20
2023-03-12T10:37:04.819Z,86.44
2023-03-12T10:38:04.816Z,86.20
2023-03-12T10:39:04.770Z,84.56
2023-03-12T10:40:04.764Z,86.05
2023-03-12T10:41:04.740Z,83.66
2023-03-12T10:42:04.760Z,82.57
2023-03-12T10:43:04.725Z,84.72
2023-03-12T10:44:04.709Z,85.14
2023-03-12T10:45:04.694Z,86.26
2023-03-12T10:46:04.746Z,84.83
2023-03-12T10:47:04.665Z,86.63
2023-03-12T10:48:04.698Z,85.71
2023-03-12T10:49:04.635Z,86.67
2023-03-12T10:50:04.629Z,86.26
2023-03-12T10:51:04.612Z,86.67
2023-03-12T10:52:04.598Z,87.90
2023-03-12T10:53:04.588Z,86.77
2023-03-12T10:54:04.572Z,86.36
2023-03-12T10:55:04.569Z,86.36
2023-03-12T10:56:04.551Z,87.65
2023-03-12T10:57:04.540Z,87.79
2023-03-12T10:58:04.527Z,86.32
2023-03-12T10:59:04.504Z,86.32
2023-03-12T11:00:04.496Z,85.97
2023-03-12T11:01:04.483Z,86.32
2023-03-12T11:02:04.584Z,85.91
2023-03-12T11:03:04.453Z,87.30
2023-03-12T11:04:04.469Z,86.38
2023-03-12T11:05:04.430Z,85.47
2023-03-12T11:06:04.506Z,85.22
2023-03-12T11:07:04.403Z,84.81
2023-03-12T11:08:04.389Z,84.50
2023-03-12T11:09:16.237Z,84.26
2023-03-12T11:10:05.392Z,83.04
2023-03-12T11:11:04.354Z,84.83
2023-03-12T11:12:04.332Z,83.40
2023-03-12T11:13:04.319Z,82.79
2023-03-12T11:14:04.308Z,82.59
2023-03-12T11:15:04.300Z,82.49
2023-03-12T11:16:04.321Z,81.60
2023-03-12T11:17:04.281Z,82.46
2023-03-12T11:18:04.259Z,84.00
2023-03-12T11:19:04.247Z,83.28
2023-03-12T11:20:04.254Z,84.57
2023-03-12T11:21:04.315Z,83.34
2023-03-12T11:22:04.204Z,83.71
2023-03-12T11:23:04.195Z,81.26
2023-03-12T11:24:04.179Z,82.24
2023-03-12T11:25:04.171Z,81.94
2023-03-12T11:26:04.154Z,82.55
2023-03-12T11:27:04.141Z,83.67
2023-03-12T11:28:04.156Z,81.53
2023-03-12T11:29:04.122Z,80.44
2023-03-12T11:30:04.093Z,81.77
2023-03-12T11:31:04.103Z,82.32
2023-03-12T11:32:04.132Z,83.44
2023-03-12T11:33:04.130Z,84.00
2023-03-12T11:34:04.044Z,82.83
2023-03-12T11:35:04.033Z,82.67
2023-03-12T11:36:04.048Z,82.63
2023-03-12T11:37:04.005Z,83.30
2023-03-12T11:38:04.014Z,81.15
2023-03-12T11:39:03.981Z,81.58
2023-03-12T11:40:03.969Z,76.96
2023-03-12T11:41:03.955Z,78.05
2023-03-12T11:42:03.942Z,78.35
2023-03-12T11:43:03.932Z,76.68
2023-03-12T11:44:03.910Z,74.76
2023-03-12T11:45:03.924Z,73.53
2023-03-12T11:46:03.893Z,72.52
2023-03-12T11:47:03.874Z,72.41
2023-03-12T11:48:03.864Z,72.96
2023-03-12T11:49:03.845Z,72.69
2023-03-12T11:50:03.853Z,73.30
2023-03-12T11:51:03.839Z,72.89
2023-03-12T11:52:03.855Z,73.13
2023-03-12T11:53:03.812Z,75.30
2023-03-12T11:54:03.786Z,75.43
2023-03-12T11:55:03.787Z,73.80
2023-03-12T11:56:03.873Z,71.80
2023-03-12T11:57:03.787Z,74.18
2023-03-12T11:58:03.729Z,73.91
2023-03-12T11:59:03.725Z,75.37
2023-03-12T12:00:03.712Z,74.25
2023-03-12T12:01:03.691Z,74.52
2023-03-12T12:02:03.740Z,76.83
2023-03-12T12:03:03.716Z,77.68
2023-03-12T12:04:03.645Z,77.58
2023-03-12T12:05:03.632Z,77.75
2023-03-12T12:06:03.617Z,76.53
2023-03-12T12:07:03.614Z,78.66
2023-03-12T12:08:03.621Z,77.03
2023-03-12T12:09:03.582Z,76.69
2023-03-12T12:10:03.569Z,76.32
2023-03-12T12:11:03.555Z,75.60
2023-03-12T12:12:05.573Z,77.61
2023-03-12T12:13:03.530Z,76.39
2023-03-12T12:14:03.508Z,76.08
2023-03-12T12:15:03.494Z,76.39
2023-03-12T12:16:03.586Z,75.84
2023-03-12T12:17:03.480Z,74.76
2023-03-12T12:18:03.460Z,71.60
2023-03-12T12:19:04.654Z,71.53
2023-03-12T12:20:03.433Z,71.88
2023-03-12T12:21:03.416Z,72.58
2023-03-12T12:22:03.402Z,71.20
2023-03-12T12:23:03.392Z,70.45
2023-03-12T12:24:03.468Z,71.26
2023-03-12T12:25:03.366Z,72.85
2023-03-12T12:26:03.358Z,70.79
2023-03-12T12:27:03.339Z,70.83
2023-03-12T12:28:03.330Z,69.40
2023-03-12T12:29:03.312Z,68.08
2023-03-12T12:30:03.299Z,69.30
2023-03-12T12:31:03.509Z,70.75
2023-03-12T12:32:03.349Z,71.53
2023-03-12T12:33:03.273Z,72.99
2023-03-12T12:34:03.250Z,73.26
2023-03-12T12:35:03.233Z,72.08
2023-03-12T12:36:03.563Z,74.62
2023-03-12T12:37:03.246Z,73.50
2023-03-12T12:38:03.196Z,74.96
2023-03-12T12:39:03.180Z,75.33
2023-03-12T12:40:03.193Z,73.74
2023-03-12T12:41:03.155Z,73.23
2023-03-12T12:42:03.142Z,72.99
2023-03-12T12:43:03.130Z,68.86
2023-03-12T12:44:03.118Z,70.01
2023-03-12T12:45:03.100Z,69.20
2023-03-12T12:46:03.186Z,70.18
2023-03-12T12:47:03.092Z,69.57
2023-03-12T12:48:03.064Z,71.84
2023-03-12T12:49:03.051Z,71.33
2023-03-12T12:50:03.031Z,71.33
2023-03-12T12:51:03.016Z,72.14
2023-03-12T12:52:03.009Z,71.64
2023-03-12T12:53:02.998Z,71.77